sensor_id;sensor_type;location;lat;lon;timestamp;P1;durP1;ratioP1;P2;durP2;ratioP2
72635;SDS011;60679;48.888;15.544;2023-09-30T00:00:15;7.77;;;2.60;;
72635;SDS011;60679;48.888;15.544;2023-09-30T00:02:40;7.03;;;2.20;;
72635;SDS011;60679;48.888;15.544;2023-09-30T00:05:06;5.93;;;2.47;;
72635;SDS011;60679;48.888;15.544;2023-09-30T00:07:32;15.73;;;3.55;;
72635;SDS011;60679;48.888;15.544;2023-09-30T00:09:57;6.43;;;2.50;;
72635;SDS011;60679;48.888;15.544;2023-09-30T00:12:23;5.90;;;2.22;;
72635;SDS011;60679;48.888;15.544;2023-09-30T00:14:49;6.93;;;2.23;;
72635;SDS011;60679;48.888;15.544;2023-09-30T00:17:14;9.93;;;2.27;;
72635;SDS011;60679;48.888;15.544;2023-09-30T00:19:40;6.43;;;2.80;;
72635;SDS011;60679;48.888;15.544;2023-09-30T00:22:06;5.45;;;2.17;;
72635;SDS011;60679;48.888;15.544;2023-09-30T00:24:31;5.53;;;2.37;;
72635;SDS011;60679;48.888;15.544;2023-09-30T00:26:57;11.77;;;2.20;;
72635;SDS011;60679;48.888;15.544;2023-09-30T00:29:22;8.93;;;2.37;;
72635;SDS011;60679;48.888;15.544;2023-09-30T00:31:47;6.27;;;2.10;;
72635;SDS011;60679;48.888;15.544;2023-09-30T00:34:13;7.60;;;2.57;;
72635;SDS011;60679;48.888;15.544;2023-09-30T00:36:38;6.22;;;1.73;;
72635;SDS011;60679;48.888;15.544;2023-09-30T00:39:04;5.50;;;2.13;;
72635;SDS011;60679;48.888;15.544;2023-09-30T00:41:29;5.37;;;1.80;;
72635;SDS011;60679;48.888;15.544;2023-09-30T00:43:55;6.03;;;2.27;;
72635;SDS011;60679;48.888;15.544;2023-09-30T00:48:54;5.43;;;1.97;;
72635;SDS011;60679;48.888;15.544;2023-09-30T00:51:22;6.75;;;2.45;;
72635;SDS011;60679;48.888;15.544;2023-09-30T00:53:48;11.05;;;2.28;;
72635;SDS011;60679;48.888;15.544;2023-09-30T00:56:15;5.38;;;2.08;;
72635;SDS011;60679;48.888;15.544;2023-09-30T00:58:43;7.17;;;2.50;;
72635;SDS011;60679;48.888;15.544;2023-09-30T01:01:10;8.15;;;2.13;;
72635;SDS011;60679;48.888;15.544;2023-09-30T01:03:36;5.47;;;1.90;;
72635;SDS011;60679;48.888;15.544;2023-09-30T01:06:02;6.07;;;2.58;;
72635;SDS011;60679;48.888;15.544;2023-09-30T01:08:28;7.57;;;2.80;;
72635;SDS011;60679;48.888;15.544;2023-09-30T01:10:53;9.30;;;2.80;;
72635;SDS011;60679;48.888;15.544;2023-09-30T01:13:20;8.13;;;2.20;;
72635;SDS011;60679;48.888;15.544;2023-09-30T01:15:45;6.07;;;2.37;;
72635;SDS011;60679;48.888;15.544;2023-09-30T01:18:12;5.40;;;1.85;;
72635;SDS011;60679;48.888;15.544;2023-09-30T01:20:37;4.83;;;1.80;;
72635;SDS011;60679;48.888;15.544;2023-09-30T01:23:03;6.05;;;2.25;;
72635;SDS011;60679;48.888;15.544;2023-09-30T01:25:29;6.07;;;2.07;;
72635;SDS011;60679;48.888;15.544;2023-09-30T01:27:55;5.43;;;1.92;;
72635;SDS011;60679;48.888;15.544;2023-09-30T01:30:20;4.80;;;1.77;;
72635;SDS011;60679;48.888;15.544;2023-09-30T01:32:48;4.57;;;1.90;;
72635;SDS011;60679;48.888;15.544;2023-09-30T01:35:13;5.00;;;1.33;;
72635;SDS011;60679;48.888;15.544;2023-09-30T01:37:39;4.25;;;1.30;;
72635;SDS011;60679;48.888;15.544;2023-09-30T01:40:05;6.43;;;1.77;;
72635;SDS011;60679;48.888;15.544;2023-09-30T01:42:35;6.10;;;1.77;;
72635;SDS011;60679;48.888;15.544;2023-09-30T01:45:01;4.03;;;1.47;;
72635;SDS011;60679;48.888;15.544;2023-09-30T01:47:27;7.80;;;1.38;;
72635;SDS011;60679;48.888;15.544;2023-09-30T01:49:52;5.90;;;1.63;;
72635;SDS011;60679;48.888;15.544;2023-09-30T01:52:18;5.50;;;1.88;;
72635;SDS011;60679;48.888;15.544;2023-09-30T01:54:43;4.40;;;1.23;;
72635;SDS011;60679;48.888;15.544;2023-09-30T01:57:09;4.73;;;1.53;;
72635;SDS011;60679;48.888;15.544;2023-09-30T01:59:35;4.55;;;1.50;;
72635;SDS011;60679;48.888;15.544;2023-09-30T02:02:00;4.20;;;1.50;;
72635;SDS011;60679;48.888;15.544;2023-09-30T02:04:27;4.53;;;1.38;;
72635;SDS011;60679;48.888;15.544;2023-09-30T02:06:53;4.93;;;1.40;;
72635;SDS011;60679;48.888;15.544;2023-09-30T02:09:18;4.33;;;1.20;;
72635;SDS011;60679;48.888;15.544;2023-09-30T02:11:44;6.43;;;2.10;;
72635;SDS011;60679;48.888;15.544;2023-09-30T02:14:09;7.10;;;1.60;;
72635;SDS011;60679;48.888;15.544;2023-09-30T02:16:40;13.65;;;2.03;;
72635;SDS011;60679;48.888;15.544;2023-09-30T02:19:05;7.17;;;2.37;;
72635;SDS011;60679;48.888;15.544;2023-09-30T02:21:31;6.65;;;2.15;;
72635;SDS011;60679;48.888;15.544;2023-09-30T02:23:57;6.00;;;1.98;;
72635;SDS011;60679;48.888;15.544;2023-09-30T02:26:22;7.77;;;1.30;;
72635;SDS011;60679;48.888;15.544;2023-09-30T02:28:50;6.45;;;2.15;;
72635;SDS011;60679;48.888;15.544;2023-09-30T02:31:17;5.10;;;2.03;;
72635;SDS011;60679;48.888;15.544;2023-09-30T02:33:43;4.75;;;1.48;;
72635;SDS011;60679;48.888;15.544;2023-09-30T02:36:09;6.88;;;2.30;;
72635;SDS011;60679;48.888;15.544;2023-09-30T02:38:35;7.80;;;2.23;;
72635;SDS011;60679;48.888;15.544;2023-09-30T02:41:03;9.32;;;3.00;;
72635;SDS011;60679;48.888;15.544;2023-09-30T02:43:29;7.63;;;2.47;;
72635;SDS011;60679;48.888;15.544;2023-09-30T02:45:54;6.37;;;2.07;;
72635;SDS011;60679;48.888;15.544;2023-09-30T02:48:19;6.90;;;1.98;;
72635;SDS011;60679;48.888;15.544;2023-09-30T02:50:45;5.83;;;2.47;;
72635;SDS011;60679;48.888;15.544;2023-09-30T02:53:10;5.77;;;1.97;;
72635;SDS011;60679;48.888;15.544;2023-09-30T02:55:38;5.75;;;1.80;;
72635;SDS011;60679;48.888;15.544;2023-09-30T02:58:03;4.97;;;1.77;;
72635;SDS011;60679;48.888;15.544;2023-09-30T03:00:28;7.00;;;2.03;;
72635;SDS011;60679;48.888;15.544;2023-09-30T03:02:59;6.78;;;2.38;;
72635;SDS011;60679;48.888;15.544;2023-09-30T03:05:25;7.65;;;2.80;;
72635;SDS011;60679;48.888;15.544;2023-09-30T03:07:52;6.90;;;2.27;;
72635;SDS011;60679;48.888;15.544;2023-09-30T03:10:17;6.05;;;2.05;;
72635;SDS011;60679;48.888;15.544;2023-09-30T03:12:51;6.15;;;2.10;;
72635;SDS011;60679;48.888;15.544;2023-09-30T03:15:20;6.30;;;2.00;;
72635;SDS011;60679;48.888;15.544;2023-09-30T03:17:46;6.68;;;2.25;;
72635;SDS011;60679;48.888;15.544;2023-09-30T03:20:12;5.97;;;2.10;;
72635;SDS011;60679;48.888;15.544;2023-09-30T03:22:39;10.85;;;3.50;;
72635;SDS011;60679;48.888;15.544;2023-09-30T03:25:06;9.68;;;2.60;;
72635;SDS011;60679;48.888;15.544;2023-09-30T03:27:35;10.68;;;2.65;;
72635;SDS011;60679;48.888;15.544;2023-09-30T03:30:02;5.23;;;1.60;;
72635;SDS011;60679;48.888;15.544;2023-09-30T03:32:30;9.35;;;2.20;;
72635;SDS011;60679;48.888;15.544;2023-09-30T03:34:58;8.90;;;2.80;;
72635;SDS011;60679;48.888;15.544;2023-09-30T03:37:25;8.20;;;2.53;;
72635;SDS011;60679;48.888;15.544;2023-09-30T03:39:56;8.60;;;2.65;;
72635;SDS011;60679;48.888;15.544;2023-09-30T03:42:21;8.40;;;2.10;;
72635;SDS011;60679;48.888;15.544;2023-09-30T03:44:47;14.67;;;2.73;;
72635;SDS011;60679;48.888;15.544;2023-09-30T03:47:16;11.13;;;2.63;;
72635;SDS011;60679;48.888;15.544;2023-09-30T03:49:42;7.78;;;2.88;;
72635;SDS011;60679;48.888;15.544;2023-09-30T03:52:08;10.57;;;2.20;;
72635;SDS011;60679;48.888;15.544;2023-09-30T03:54:34;7.25;;;2.83;;
72635;SDS011;60679;48.888;15.544;2023-09-30T03:57:00;10.85;;;3.28;;
72635;SDS011;60679;48.888;15.544;2023-09-30T03:59:25;6.33;;;2.23;;
72635;SDS011;60679;48.888;15.544;2023-09-30T04:01:51;12.05;;;3.40;;
72635;SDS011;60679;48.888;15.544;2023-09-30T04:04:19;11.93;;;2.97;;
72635;SDS011;60679;48.888;15.544;2023-09-30T04:06:46;8.40;;;3.20;;
72635;SDS011;60679;48.888;15.544;2023-09-30T04:09:13;9.30;;;3.20;;
72635;SDS011;60679;48.888;15.544;2023-09-30T04:11:38;14.30;;;2.83;;
72635;SDS011;60679;48.888;15.544;2023-09-30T04:14:08;8.23;;;2.17;;
72635;SDS011;60679;48.888;15.544;2023-09-30T04:16:34;7.75;;;2.88;;
72635;SDS011;60679;48.888;15.544;2023-09-30T04:19:00;6.95;;;2.97;;
72635;SDS011;60679;48.888;15.544;2023-09-30T04:21:26;9.27;;;2.63;;
72635;SDS011;60679;48.888;15.544;2023-09-30T04:23:53;10.23;;;2.78;;
72635;SDS011;60679;48.888;15.544;2023-09-30T04:26:19;13.70;;;3.10;;
72635;SDS011;60679;48.888;15.544;2023-09-30T04:28:44;5.73;;;1.80;;
72635;SDS011;60679;48.888;15.544;2023-09-30T04:31:10;8.00;;;3.15;;
72635;SDS011;60679;48.888;15.544;2023-09-30T04:33:37;8.67;;;2.97;;
72635;SDS011;60679;48.888;15.544;2023-09-30T04:36:02;7.50;;;2.22;;
72635;SDS011;60679;48.888;15.544;2023-09-30T04:38:28;10.70;;;2.13;;
72635;SDS011;60679;48.888;15.544;2023-09-30T04:40:53;9.30;;;2.50;;
72635;SDS011;60679;48.888;15.544;2023-09-30T04:43:19;10.65;;;2.33;;
72635;SDS011;60679;48.888;15.544;2023-09-30T04:45:46;8.13;;;2.33;;
72635;SDS011;60679;48.888;15.544;2023-09-30T04:48:12;7.53;;;2.40;;
72635;SDS011;60679;48.888;15.544;2023-09-30T04:50:38;10.13;;;2.88;;
72635;SDS011;60679;48.888;15.544;2023-09-30T04:53:04;8.82;;;2.50;;
72635;SDS011;60679;48.888;15.544;2023-09-30T04:55:30;8.73;;;2.83;;
72635;SDS011;60679;48.888;15.544;2023-09-30T04:57:55;8.60;;;2.93;;
72635;SDS011;60679;48.888;15.544;2023-09-30T05:00:21;7.63;;;2.80;;
72635;SDS011;60679;48.888;15.544;2023-09-30T05:02:50;8.93;;;2.47;;
72635;SDS011;60679;48.888;15.544;2023-09-30T05:05:17;12.40;;;3.05;;
72635;SDS011;60679;48.888;15.544;2023-09-30T05:07:43;7.22;;;2.08;;
72635;SDS011;60679;48.888;15.544;2023-09-30T05:10:09;6.03;;;2.40;;
72635;SDS011;60679;48.888;15.544;2023-09-30T05:12:38;6.22;;;2.20;;
72635;SDS011;60679;48.888;15.544;2023-09-30T05:15:04;6.23;;;1.90;;
72635;SDS011;60679;48.888;15.544;2023-09-30T05:17:33;4.70;;;1.67;;
72635;SDS011;60679;48.888;15.544;2023-09-30T05:19:58;5.17;;;1.77;;
72635;SDS011;60679;48.888;15.544;2023-09-30T05:22:24;7.45;;;1.77;;
72635;SDS011;60679;48.888;15.544;2023-09-30T05:24:50;5.32;;;1.95;;
72635;SDS011;60679;48.888;15.544;2023-09-30T05:27:17;5.20;;;1.80;;
72635;SDS011;60679;48.888;15.544;2023-09-30T05:29:43;13.85;;;2.55;;
72635;SDS011;60679;48.888;15.544;2023-09-30T05:32:08;8.97;;;2.07;;
72635;SDS011;60679;48.888;15.544;2023-09-30T05:34:34;8.53;;;2.87;;
72635;SDS011;60679;48.888;15.544;2023-09-30T05:36:59;8.20;;;2.20;;
72635;SDS011;60679;48.888;15.544;2023-09-30T05:39:25;11.27;;;2.40;;
72635;SDS011;60679;48.888;15.544;2023-09-30T05:41:50;11.68;;;1.90;;
72635;SDS011;60679;48.888;15.544;2023-09-30T05:44:16;11.33;;;2.37;;
72635;SDS011;60679;48.888;15.544;2023-09-30T05:46:41;9.32;;;2.70;;
72635;SDS011;60679;48.888;15.544;2023-09-30T05:49:08;7.80;;;2.40;;
72635;SDS011;60679;48.888;15.544;2023-09-30T05:51:38;5.55;;;1.90;;
72635;SDS011;60679;48.888;15.544;2023-09-30T05:54:07;9.18;;;2.05;;
72635;SDS011;60679;48.888;15.544;2023-09-30T05:56:37;7.88;;;2.40;;
72635;SDS011;60679;48.888;15.544;2023-09-30T05:59:03;8.27;;;2.33;;
72635;SDS011;60679;48.888;15.544;2023-09-30T06:01:32;7.57;;;2.03;;
72635;SDS011;60679;48.888;15.544;2023-09-30T06:03:58;8.75;;;1.75;;
72635;SDS011;60679;48.888;15.544;2023-09-30T06:06:25;8.73;;;2.97;;
72635;SDS011;60679;48.888;15.544;2023-09-30T06:08:51;6.07;;;2.15;;
72635;SDS011;60679;48.888;15.544;2023-09-30T06:11:17;6.70;;;1.93;;
72635;SDS011;60679;48.888;15.544;2023-09-30T06:13:44;10.43;;;3.45;;
72635;SDS011;60679;48.888;15.544;2023-09-30T06:16:11;9.27;;;2.87;;
72635;SDS011;60679;48.888;15.544;2023-09-30T06:18:37;9.48;;;2.55;;
72635;SDS011;60679;48.888;15.544;2023-09-30T06:21:03;8.77;;;3.25;;
72635;SDS011;60679;48.888;15.544;2023-09-30T06:23:29;7.70;;;3.60;;
72635;SDS011;60679;48.888;15.544;2023-09-30T06:25:55;6.70;;;1.83;;
72635;SDS011;60679;48.888;15.544;2023-09-30T06:28:21;15.85;;;2.53;;
72635;SDS011;60679;48.888;15.544;2023-09-30T06:30:51;7.70;;;2.40;;
72635;SDS011;60679;48.888;15.544;2023-09-30T06:33:16;9.80;;;3.03;;
72635;SDS011;60679;48.888;15.544;2023-09-30T06:35:42;8.33;;;2.40;;
72635;SDS011;60679;48.888;15.544;2023-09-30T06:38:15;16.08;;;3.17;;
72635;SDS011;60679;48.888;15.544;2023-09-30T06:40:43;8.10;;;2.45;;
72635;SDS011;60679;48.888;15.544;2023-09-30T06:43:11;8.95;;;2.53;;
72635;SDS011;60679;48.888;15.544;2023-09-30T06:45:37;8.67;;;2.63;;
72635;SDS011;60679;48.888;15.544;2023-09-30T06:48:07;7.35;;;2.10;;
72635;SDS011;60679;48.888;15.544;2023-09-30T06:50:46;8.55;;;2.00;;
72635;SDS011;60679;48.888;15.544;2023-09-30T06:53:16;15.50;;;2.63;;
72635;SDS011;60679;48.888;15.544;2023-09-30T06:55:44;6.97;;;2.83;;
72635;SDS011;60679;48.888;15.544;2023-09-30T06:58:10;10.68;;;3.67;;
72635;SDS011;60679;48.888;15.544;2023-09-30T07:00:37;14.35;;;4.05;;
72635;SDS011;60679;48.888;15.544;2023-09-30T07:03:03;10.00;;;3.00;;
72635;SDS011;60679;48.888;15.544;2023-09-30T07:05:29;9.30;;;3.13;;
72635;SDS011;60679;48.888;15.544;2023-09-30T07:07:55;6.95;;;1.98;;
72635;SDS011;60679;48.888;15.544;2023-09-30T07:10:20;8.40;;;2.50;;
72635;SDS011;60679;48.888;15.544;2023-09-30T07:12:46;6.10;;;1.57;;
72635;SDS011;60679;48.888;15.544;2023-09-30T07:15:11;9.27;;;2.13;;
72635;SDS011;60679;48.888;15.544;2023-09-30T07:17:38;6.30;;;2.13;;
72635;SDS011;60679;48.888;15.544;2023-09-30T07:20:04;7.07;;;2.20;;
72635;SDS011;60679;48.888;15.544;2023-09-30T07:22:30;11.48;;;3.55;;
72635;SDS011;60679;48.888;15.544;2023-09-30T07:24:56;6.13;;;2.03;;
72635;SDS011;60679;48.888;15.544;2023-09-30T07:27:22;9.63;;;2.63;;
72635;SDS011;60679;48.888;15.544;2023-09-30T07:29:48;9.27;;;2.88;;
72635;SDS011;60679;48.888;15.544;2023-09-30T07:32:13;9.10;;;3.07;;
72635;SDS011;60679;48.888;15.544;2023-09-30T07:34:39;6.28;;;1.98;;
72635;SDS011;60679;48.888;15.544;2023-09-30T07:37:05;9.60;;;3.50;;
72635;SDS011;60679;48.888;15.544;2023-09-30T07:39:30;9.57;;;3.03;;
72635;SDS011;60679;48.888;15.544;2023-09-30T07:41:56;14.33;;;3.27;;
72635;SDS011;60679;48.888;15.544;2023-09-30T07:44:21;7.20;;;2.43;;
72635;SDS011;60679;48.888;15.544;2023-09-30T07:46:47;8.82;;;2.67;;
72635;SDS011;60679;48.888;15.544;2023-09-30T07:49:12;8.90;;;2.93;;
72635;SDS011;60679;48.888;15.544;2023-09-30T07:51:37;11.30;;;2.37;;
72635;SDS011;60679;48.888;15.544;2023-09-30T07:54:09;9.52;;;2.30;;
72635;SDS011;60679;48.888;15.544;2023-09-30T07:56:34;11.33;;;4.60;;
72635;SDS011;60679;48.888;15.544;2023-09-30T07:59:00;6.07;;;1.47;;
72635;SDS011;60679;48.888;15.544;2023-09-30T08:01:25;9.97;;;2.40;;
72635;SDS011;60679;48.888;15.544;2023-09-30T08:03:51;7.43;;;2.22;;
72635;SDS011;60679;48.888;15.544;2023-09-30T08:06:16;11.40;;;2.53;;
72635;SDS011;60679;48.888;15.544;2023-09-30T08:08:42;9.00;;;3.00;;
72635;SDS011;60679;48.888;15.544;2023-09-30T08:11:07;8.77;;;2.85;;
72635;SDS011;60679;48.888;15.544;2023-09-30T08:13:33;9.47;;;3.03;;
72635;SDS011;60679;48.888;15.544;2023-09-30T08:16:00;5.80;;;2.23;;
72635;SDS011;60679;48.888;15.544;2023-09-30T08:18:26;8.68;;;2.25;;
72635;SDS011;60679;48.888;15.544;2023-09-30T08:20:51;9.70;;;2.73;;
72635;SDS011;60679;48.888;15.544;2023-09-30T08:23:17;8.80;;;3.00;;
72635;SDS011;60679;48.888;15.544;2023-09-30T08:25:42;12.55;;;2.50;;
72635;SDS011;60679;48.888;15.544;2023-09-30T08:28:08;7.63;;;2.67;;
72635;SDS011;60679;48.888;15.544;2023-09-30T08:30:34;9.40;;;3.08;;
72635;SDS011;60679;48.888;15.544;2023-09-30T08:33:01;12.05;;;3.00;;
72635;SDS011;60679;48.888;15.544;2023-09-30T08:35:28;10.57;;;3.10;;
72635;SDS011;60679;48.888;15.544;2023-09-30T08:37:54;10.80;;;3.03;;
72635;SDS011;60679;48.888;15.544;2023-09-30T08:40:23;16.50;;;2.33;;
72635;SDS011;60679;48.888;15.544;2023-09-30T08:42:49;11.20;;;2.70;;
72635;SDS011;60679;48.888;15.544;2023-09-30T08:45:17;7.65;;;2.80;;
72635;SDS011;60679;48.888;15.544;2023-09-30T08:47:43;7.05;;;2.10;;
72635;SDS011;60679;48.888;15.544;2023-09-30T08:50:11;9.57;;;2.17;;
72635;SDS011;60679;48.888;15.544;2023-09-30T08:52:39;8.32;;;2.97;;
72635;SDS011;60679;48.888;15.544;2023-09-30T08:55:06;7.60;;;2.58;;
72635;SDS011;60679;48.888;15.544;2023-09-30T08:57:33;9.48;;;2.67;;
72635;SDS011;60679;48.888;15.544;2023-09-30T09:00:09;9.18;;;2.88;;
72635;SDS011;60679;48.888;15.544;2023-09-30T09:02:36;6.30;;;2.00;;
72635;SDS011;60679;48.888;15.544;2023-09-30T09:05:02;8.43;;;2.58;;
72635;SDS011;60679;48.888;15.544;2023-09-30T09:07:28;8.27;;;2.50;;
72635;SDS011;60679;48.888;15.544;2023-09-30T09:10:10;15.30;;;2.40;;
72635;SDS011;60679;48.888;15.544;2023-09-30T09:12:40;11.63;;;2.30;;
72635;SDS011;60679;48.888;15.544;2023-09-30T09:15:07;4.83;;;1.50;;
72635;SDS011;60679;48.888;15.544;2023-09-30T09:17:45;9.30;;;2.83;;
72635;SDS011;60679;48.888;15.544;2023-09-30T09:20:11;9.18;;;2.45;;
72635;SDS011;60679;48.888;15.544;2023-09-30T09:22:44;5.45;;;1.75;;
72635;SDS011;60679;48.888;15.544;2023-09-30T09:25:10;8.03;;;2.13;;
72635;SDS011;60679;48.888;15.544;2023-09-30T09:27:36;8.15;;;2.50;;
72635;SDS011;60679;48.888;15.544;2023-09-30T09:30:45;7.07;;;1.80;;
72635;SDS011;60679;48.888;15.544;2023-09-30T09:32:52;9.97;;;3.00;;
72635;SDS011;60679;48.888;15.544;2023-09-30T09:35:25;8.63;;;2.67;;
72635;SDS011;60679;48.888;15.544;2023-09-30T09:38:00;6.97;;;2.55;;
72635;SDS011;60679;48.888;15.544;2023-09-30T09:40:30;12.55;;;2.45;;
72635;SDS011;60679;48.888;15.544;2023-09-30T09:43:00;7.05;;;2.58;;
72635;SDS011;60679;48.888;15.544;2023-09-30T09:45:30;6.13;;;2.07;;
72635;SDS011;60679;48.888;15.544;2023-09-30T09:48:00;10.38;;;2.75;;
72635;SDS011;60679;48.888;15.544;2023-09-30T09:50:26;9.18;;;2.63;;
72635;SDS011;60679;48.888;15.544;2023-09-30T09:52:52;8.40;;;1.87;;
72635;SDS011;60679;48.888;15.544;2023-09-30T09:55:24;7.47;;;2.97;;
72635;SDS011;60679;48.888;15.544;2023-09-30T09:57:50;10.13;;;2.20;;
72635;SDS011;60679;48.888;15.544;2023-09-30T10:00:17;9.02;;;2.15;;
72635;SDS011;60679;48.888;15.544;2023-09-30T10:02:47;15.35;;;3.22;;
72635;SDS011;60679;48.888;15.544;2023-09-30T10:05:14;5.43;;;1.60;;
72635;SDS011;60679;48.888;15.544;2023-09-30T10:10:11;7.15;;;1.90;;
72635;SDS011;60679;48.888;15.544;2023-09-30T10:12:40;7.85;;;2.65;;
72635;SDS011;60679;48.888;15.544;2023-09-30T10:17:58;7.05;;;2.30;;
72635;SDS011;60679;48.888;15.544;2023-09-30T10:26:13;8.63;;;2.00;;
72635;SDS011;60679;48.888;15.544;2023-09-30T10:28:39;8.55;;;2.55;;
72635;SDS011;60679;48.888;15.544;2023-09-30T10:31:20;9.88;;;2.97;;
72635;SDS011;60679;48.888;15.544;2023-09-30T10:36:28;10.73;;;2.78;;
72635;SDS011;60679;48.888;15.544;2023-09-30T10:39:10;7.83;;;2.63;;
72635;SDS011;60679;48.888;15.544;2023-09-30T10:46:58;9.15;;;2.85;;
72635;SDS011;60679;48.888;15.544;2023-09-30T10:51:54;8.83;;;2.60;;
72635;SDS011;60679;48.888;15.544;2023-09-30T10:54:29;8.88;;;3.08;;
72635;SDS011;60679;48.888;15.544;2023-09-30T10:56:56;11.50;;;3.10;;
72635;SDS011;60679;48.888;15.544;2023-09-30T10:59:30;10.80;;;3.28;;
72635;SDS011;60679;48.888;15.544;2023-09-30T11:01:57;11.00;;;2.78;;
72635;SDS011;60679;48.888;15.544;2023-09-30T11:04:23;6.88;;;2.63;;
72635;SDS011;60679;48.888;15.544;2023-09-30T11:06:48;13.37;;;3.30;;
72635;SDS011;60679;48.888;15.544;2023-09-30T11:09:18;7.45;;;2.55;;
72635;SDS011;60679;48.888;15.544;2023-09-30T11:16:47;6.50;;;2.45;;
72635;SDS011;60679;48.888;15.544;2023-09-30T11:19:14;8.13;;;2.85;;
72635;SDS011;60679;48.888;15.544;2023-09-30T11:21:40;6.43;;;2.50;;
72635;SDS011;60679;48.888;15.544;2023-09-30T11:24:06;7.45;;;2.67;;
72635;SDS011;60679;48.888;15.544;2023-09-30T11:26:33;8.13;;;2.58;;
72635;SDS011;60679;48.888;15.544;2023-09-30T11:29:32;6.32;;;2.20;;
72635;SDS011;60679;48.888;15.544;2023-09-30T11:31:52;7.23;;;2.00;;
72635;SDS011;60679;48.888;15.544;2023-09-30T11:34:17;10.23;;;1.92;;
72635;SDS011;60679;48.888;15.544;2023-09-30T11:36:47;5.27;;;2.20;;
72635;SDS011;60679;48.888;15.544;2023-09-30T11:39:24;4.75;;;1.60;;
72635;SDS011;60679;48.888;15.544;2023-09-30T11:41:51;9.10;;;1.65;;
72635;SDS011;60679;48.888;15.544;2023-09-30T11:44:17;5.47;;;1.58;;
72635;SDS011;60679;48.888;15.544;2023-09-30T11:46:53;5.15;;;1.50;;
72635;SDS011;60679;48.888;15.544;2023-09-30T11:49:31;4.70;;;1.43;;
72635;SDS011;60679;48.888;15.544;2023-09-30T11:52:03;5.32;;;1.45;;
72635;SDS011;60679;48.888;15.544;2023-09-30T11:54:30;4.20;;;1.35;;
72635;SDS011;60679;48.888;15.544;2023-09-30T11:56:57;3.78;;;1.00;;
72635;SDS011;60679;48.888;15.544;2023-09-30T11:59:24;3.75;;;1.00;;
72635;SDS011;60679;48.888;15.544;2023-09-30T12:01:49;4.23;;;1.10;;
72635;SDS011;60679;48.888;15.544;2023-09-30T12:04:16;5.75;;;1.30;;
72635;SDS011;60679;48.888;15.544;2023-09-30T12:06:46;4.32;;;1.15;;
72635;SDS011;60679;48.888;15.544;2023-09-30T12:09:13;4.25;;;1.15;;
72635;SDS011;60679;48.888;15.544;2023-09-30T12:11:42;4.93;;;1.20;;
72635;SDS011;60679;48.888;15.544;2023-09-30T12:14:12;3.63;;;1.00;;
72635;SDS011;60679;48.888;15.544;2023-09-30T12:16:48;3.92;;;0.77;;
72635;SDS011;60679;48.888;15.544;2023-09-30T12:19:14;3.70;;;1.08;;
72635;SDS011;60679;48.888;15.544;2023-09-30T12:21:41;3.50;;;0.90;;
72635;SDS011;60679;48.888;15.544;2023-09-30T12:24:07;4.22;;;1.30;;
72635;SDS011;60679;48.888;15.544;2023-09-30T12:26:34;3.70;;;1.07;;
72635;SDS011;60679;48.888;15.544;2023-09-30T12:29:01;3.60;;;1.00;;
72635;SDS011;60679;48.888;15.544;2023-09-30T12:31:26;4.35;;;1.20;;
72635;SDS011;60679;48.888;15.544;2023-09-30T12:33:52;4.37;;;1.23;;
72635;SDS011;60679;48.888;15.544;2023-09-30T12:36:19;3.40;;;0.77;;
72635;SDS011;60679;48.888;15.544;2023-09-30T12:38:45;4.43;;;1.40;;
72635;SDS011;60679;48.888;15.544;2023-09-30T12:41:10;4.77;;;1.30;;
72635;SDS011;60679;48.888;15.544;2023-09-30T12:43:37;4.10;;;0.90;;
72635;SDS011;60679;48.888;15.544;2023-09-30T12:46:02;4.28;;;1.38;;
72635;SDS011;60679;48.888;15.544;2023-09-30T12:48:29;4.53;;;1.03;;
72635;SDS011;60679;48.888;15.544;2023-09-30T12:50:55;7.72;;;1.15;;
72635;SDS011;60679;48.888;15.544;2023-09-30T12:53:20;4.17;;;0.90;;
72635;SDS011;60679;48.888;15.544;2023-09-30T12:55:45;6.57;;;1.37;;
72635;SDS011;60679;48.888;15.544;2023-09-30T12:58:11;4.53;;;1.27;;
72635;SDS011;60679;48.888;15.544;2023-09-30T13:00:36;4.15;;;1.17;;
72635;SDS011;60679;48.888;15.544;2023-09-30T13:03:02;3.90;;;1.33;;
72635;SDS011;60679;48.888;15.544;2023-09-30T13:05:28;3.58;;;1.00;;
72635;SDS011;60679;48.888;15.544;2023-09-30T13:07:54;4.47;;;1.37;;
72635;SDS011;60679;48.888;15.544;2023-09-30T13:10:23;8.88;;;1.52;;
72635;SDS011;60679;48.888;15.544;2023-09-30T13:12:48;8.07;;;1.23;;
72635;SDS011;60679;48.888;15.544;2023-09-30T13:15:14;3.60;;;1.00;;
72635;SDS011;60679;48.888;15.544;2023-09-30T13:17:42;3.97;;;0.90;;
72635;SDS011;60679;48.888;15.544;2023-09-30T13:20:08;4.07;;;1.00;;
72635;SDS011;60679;48.888;15.544;2023-09-30T13:22:34;4.00;;;1.20;;
72635;SDS011;60679;48.888;15.544;2023-09-30T13:25:06;3.70;;;0.95;;
72635;SDS011;60679;48.888;15.544;2023-09-30T13:27:39;3.97;;;0.90;;
72635;SDS011;60679;48.888;15.544;2023-09-30T13:30:05;6.45;;;1.50;;
72635;SDS011;60679;48.888;15.544;2023-09-30T13:32:33;3.90;;;1.07;;
72635;SDS011;60679;48.888;15.544;2023-09-30T13:35:01;4.75;;;1.17;;
72635;SDS011;60679;48.888;15.544;2023-09-30T13:37:33;4.10;;;1.40;;
72635;SDS011;60679;48.888;15.544;2023-09-30T13:40:00;4.20;;;1.00;;
72635;SDS011;60679;48.888;15.544;2023-09-30T13:42:26;3.13;;;0.60;;
72635;SDS011;60679;48.888;15.544;2023-09-30T13:44:52;3.95;;;0.93;;
72635;SDS011;60679;48.888;15.544;2023-09-30T13:47:18;3.57;;;0.77;;
72635;SDS011;60679;48.888;15.544;2023-09-30T13:49:43;4.87;;;1.07;;
72635;SDS011;60679;48.888;15.544;2023-09-30T13:52:09;3.37;;;0.70;;
72635;SDS011;60679;48.888;15.544;2023-09-30T13:54:34;3.27;;;0.73;;
72635;SDS011;60679;48.888;15.544;2023-09-30T13:56:59;3.30;;;0.80;;
72635;SDS011;60679;48.888;15.544;2023-09-30T13:59:25;3.17;;;0.73;;
72635;SDS011;60679;48.888;15.544;2023-09-30T14:01:50;3.55;;;0.93;;
72635;SDS011;60679;48.888;15.544;2023-09-30T14:04:16;3.83;;;0.90;;
72635;SDS011;60679;48.888;15.544;2023-09-30T14:06:42;3.80;;;0.80;;
72635;SDS011;60679;48.888;15.544;2023-09-30T14:09:07;3.80;;;0.90;;
72635;SDS011;60679;48.888;15.544;2023-09-30T14:11:40;3.20;;;0.80;;
72635;SDS011;60679;48.888;15.544;2023-09-30T14:14:06;3.63;;;0.93;;
72635;SDS011;60679;48.888;15.544;2023-09-30T14:16:34;4.03;;;0.87;;
72635;SDS011;60679;48.888;15.544;2023-09-30T14:19:00;3.53;;;0.75;;
72635;SDS011;60679;48.888;15.544;2023-09-30T14:21:26;3.27;;;0.87;;
72635;SDS011;60679;48.888;15.544;2023-09-30T14:23:51;3.67;;;0.88;;
72635;SDS011;60679;48.888;15.544;2023-09-30T14:26:17;3.90;;;1.00;;
72635;SDS011;60679;48.888;15.544;2023-09-30T14:28:42;6.00;;;0.90;;
72635;SDS011;60679;48.888;15.544;2023-09-30T14:31:07;5.37;;;1.00;;
72635;SDS011;60679;48.888;15.544;2023-09-30T14:33:36;3.47;;;1.00;;
72635;SDS011;60679;48.888;15.544;2023-09-30T14:36:02;3.15;;;0.85;;
72635;SDS011;60679;48.888;15.544;2023-09-30T14:38:31;4.55;;;1.23;;
72635;SDS011;60679;48.888;15.544;2023-09-30T14:40:56;4.78;;;1.08;;
72635;SDS011;60679;48.888;15.544;2023-09-30T14:43:22;4.00;;;1.00;;
72635;SDS011;60679;48.888;15.544;2023-09-30T14:45:47;4.50;;;0.67;;
72635;SDS011;60679;48.888;15.544;2023-09-30T14:48:12;3.50;;;0.73;;
72635;SDS011;60679;48.888;15.544;2023-09-30T14:50:47;3.55;;;0.80;;
72635;SDS011;60679;48.888;15.544;2023-09-30T14:53:13;3.47;;;1.00;;
72635;SDS011;60679;48.888;15.544;2023-09-30T14:55:38;3.80;;;1.00;;
72635;SDS011;60679;48.888;15.544;2023-09-30T14:58:05;3.40;;;0.90;;
72635;SDS011;60679;48.888;15.544;2023-09-30T15:00:31;3.30;;;1.00;;